<?xml version="1.0" encoding="UTF-8" standalone="no" ?>
<gpx xmlns="http://www.topografix.com/GPX/1/1" creator="MapSource 6.15.11" version="1.1" xmlns:xsi="http://www.w3.org/2001/XMLSchema-instance" xsi:schemaLocation="http://www.topografix.com/GPX/1/1 http://www.topografix.com/GPX/1/1/gpx.xsd">

  <metadata>
    <link href="http://www.garmin.com">
      <text>Garmin International</text>
    </link>
    <time>2014-05-27T16:13:21Z</time>
    <bounds maxlat="47.5766947" maxlon="10.7481146" minlat="47.4791199" minlon="10.6242299"/>
  </metadata>

  <wpt lat="47.4837685" lon="10.7268620">
    <time>2014-05-27T16:12:36Z</time>
    <name>Alpentherme Reutte</name>
    <cmt>Alpentherme Reutte</cmt>
    <desc>Alpentherme Reutte</desc>
    <sym>Circle, Green</sym>
    <extensions>
      <gpxx:WaypointExtension xmlns:gpxx="http://www.garmin.com/xmlschemas/GpxExtensions/v3">
        <gpxx:DisplayMode>SymbolAndName</gpxx:DisplayMode>
      </gpxx:WaypointExtension>
    </extensions>
  </wpt>

  <wpt lat="47.5762081" lon="10.6242299">
    <time>2014-04-27T13:28:58Z</time>
    <name>Dreimaederlhaus</name>
    <cmt>Dreimaederlhaus Pfrotenerstrasse 43
87629 Füssen</cmt>
    <desc>Dreimaederlhaus Pfrotenerstrasse 43
87629 Füssen</desc>
    <sym>Circle, Blue</sym>
    <extensions>
      <gpxx:WaypointExtension xmlns:gpxx="http://www.garmin.com/xmlschemas/GpxExtensions/v3">
        <gpxx:DisplayMode>SymbolAndName</gpxx:DisplayMode>
      </gpxx:WaypointExtension>
    </extensions>
  </wpt>

  <trk>
    <name>Aktueller Track: 21 APR 2014 09:38</name>
    <extensions>
      <gpxx:TrackExtension xmlns:gpxx="http://www.garmin.com/xmlschemas/GpxExtensions/v3">
        <gpxx:DisplayColor>White</gpxx:DisplayColor>
      </gpxx:TrackExtension>
    </extensions>
    <trkseg>
      <trkpt lat="47.5766947" lon="10.6315848">
        <ele>875.4200000</ele>
        <time>2014-04-21T07:38:53Z</time>
      </trkpt>
      <trkpt lat="47.5766210" lon="10.6318626">
        <ele>875.4200000</ele>
        <time>2014-04-21T07:38:54Z</time>
      </trkpt>
      <trkpt lat="47.5764958" lon="10.6323997">
        <ele>873.5000000</ele>
        <time>2014-04-21T07:38:56Z</time>
      </trkpt>
      <trkpt lat="47.5762893" lon="10.6331441">
        <ele>873.0100000</ele>
        <time>2014-04-21T07:38:59Z</time>
      </trkpt>
      <trkpt lat="47.5759971" lon="10.6337981">
        <ele>872.5300000</ele>
        <time>2014-04-21T07:39:02Z</time>
      </trkpt>
      <trkpt lat="47.5753890" lon="10.6347487">
        <ele>876.3800000</ele>
        <time>2014-04-21T07:39:07Z</time>
      </trkpt>
      <trkpt lat="47.5749962" lon="10.6353348">
        <ele>880.7100000</ele>
        <time>2014-04-21T07:39:10Z</time>
      </trkpt>
      <trkpt lat="47.5748661" lon="10.6355357">
        <ele>880.7100000</ele>
        <time>2014-04-21T07:39:11Z</time>
      </trkpt>
      <trkpt lat="47.5739670" lon="10.6372327">
        <ele>879.2600000</ele>
        <time>2014-04-21T07:39:21Z</time>
      </trkpt>
      <trkpt lat="47.5737461" lon="10.6393478">
        <ele>877.3400000</ele>
        <time>2014-04-21T07:39:32Z</time>
      </trkpt>
      <trkpt lat="47.5737833" lon="10.6395666">
        <ele>876.3800000</ele>
        <time>2014-04-21T07:39:33Z</time>
      </trkpt>
      <trkpt lat="47.5738342" lon="10.6397807">
        <ele>875.9000000</ele>
        <time>2014-04-21T07:39:34Z</time>
      </trkpt>
      <trkpt lat="47.5738997" lon="10.6399919">
        <ele>875.4200000</ele>
        <time>2014-04-21T07:39:35Z</time>
      </trkpt>
      <trkpt lat="47.5739867" lon="10.6401953">
        <ele>874.4600000</ele>
        <time>2014-04-21T07:39:36Z</time>
      </trkpt>
      <trkpt lat="47.5740904" lon="10.6403989">
        <ele>873.5000000</ele>
        <time>2014-04-21T07:39:37Z</time>
      </trkpt>
      <trkpt lat="47.5741995" lon="10.6406143">
        <ele>873.5000000</ele>
        <time>2014-04-21T07:39:38Z</time>
      </trkpt>
      <trkpt lat="47.5748573" lon="10.6431532">
        <ele>870.1300000</ele>
        <time>2014-04-21T07:39:48Z</time>
      </trkpt>
      <trkpt lat="47.5748553" lon="10.6433997">
        <ele>870.1300000</ele>
        <time>2014-04-21T07:39:49Z</time>
      </trkpt>
      <trkpt lat="47.5748342" lon="10.6436411">
        <ele>870.1300000</ele>
        <time>2014-04-21T07:39:50Z</time>
      </trkpt>
      <trkpt lat="47.5747921" lon="10.6438768">
        <ele>869.6500000</ele>
        <time>2014-04-21T07:39:51Z</time>
      </trkpt>
      <trkpt lat="47.5747298" lon="10.6441030">
        <ele>869.6500000</ele>
        <time>2014-04-21T07:39:52Z</time>
      </trkpt>
      <trkpt lat="47.5746517" lon="10.6443139">
        <ele>869.6500000</ele>
        <time>2014-04-21T07:39:53Z</time>
      </trkpt>
      <trkpt lat="47.5745561" lon="10.6445091">
        <ele>869.6500000</ele>
        <time>2014-04-21T07:39:54Z</time>
      </trkpt>
      <trkpt lat="47.5744467" lon="10.6446907">
        <ele>871.0900000</ele>
        <time>2014-04-21T07:39:55Z</time>
      </trkpt>
      <trkpt lat="47.5743244" lon="10.6448605">
        <ele>871.0900000</ele>
        <time>2014-04-21T07:39:56Z</time>
      </trkpt>
      <trkpt lat="47.5741943" lon="10.6450184">
        <ele>871.5700000</ele>
        <time>2014-04-21T07:39:57Z</time>
      </trkpt>
      <trkpt lat="47.5727893" lon="10.6467311">
        <ele>869.6500000</ele>
        <time>2014-04-21T07:40:08Z</time>
      </trkpt>
      <trkpt lat="47.5727046" lon="10.6469225">
        <ele>869.6500000</ele>
        <time>2014-04-21T07:40:09Z</time>
      </trkpt>
      <trkpt lat="47.5726392" lon="10.6471374">
        <ele>870.1300000</ele>
        <time>2014-04-21T07:40:10Z</time>
      </trkpt>
      <trkpt lat="47.5725958" lon="10.6473739">
        <ele>870.1300000</ele>
        <time>2014-04-21T07:40:11Z</time>
      </trkpt>
      <trkpt lat="47.5725795" lon="10.6476260">
        <ele>870.1300000</ele>
        <time>2014-04-21T07:40:12Z</time>
      </trkpt>
      <trkpt lat="47.5725883" lon="10.6478867">
        <ele>870.1300000</ele>
        <time>2014-04-21T07:40:13Z</time>
      </trkpt>
      <trkpt lat="47.5726108" lon="10.6481454">
        <ele>871.5700000</ele>
        <time>2014-04-21T07:40:14Z</time>
      </trkpt>
      <trkpt lat="47.5726351" lon="10.6483967">
        <ele>871.0900000</ele>
        <time>2014-04-21T07:40:15Z</time>
      </trkpt>
      <trkpt lat="47.5726784" lon="10.6488973">
        <ele>869.6500000</ele>
        <time>2014-04-21T07:40:17Z</time>
      </trkpt>
      <trkpt lat="47.5729260" lon="10.6522866">
        <ele>872.0500000</ele>
        <time>2014-04-21T07:40:30Z</time>
      </trkpt>
      <trkpt lat="47.5730605" lon="10.6536216">
        <ele>873.9800000</ele>
        <time>2014-04-21T07:40:35Z</time>
      </trkpt>
      <trkpt lat="47.5731670" lon="10.6544096">
        <ele>872.5300000</ele>
        <time>2014-04-21T07:40:38Z</time>
      </trkpt>
      <trkpt lat="47.5734257" lon="10.6569056">
        <ele>875.9000000</ele>
        <time>2014-04-21T07:40:47Z</time>
      </trkpt>
      <trkpt lat="47.5735081" lon="10.6578099">
        <ele>881.1900000</ele>
        <time>2014-04-21T07:40:50Z</time>
      </trkpt>
      <trkpt lat="47.5735313" lon="10.6581013">
        <ele>881.1900000</ele>
        <time>2014-04-21T07:40:51Z</time>
      </trkpt>
      <trkpt lat="47.5736049" lon="10.6592970">
        <ele>876.8600000</ele>
        <time>2014-04-21T07:40:56Z</time>
      </trkpt>
      <trkpt lat="47.5736257" lon="10.6594462">
        <ele>874.4600000</ele>
        <time>2014-04-21T07:40:57Z</time>
      </trkpt>
      <trkpt lat="47.5736688" lon="10.6595580">
        <ele>872.0500000</ele>
        <time>2014-04-21T07:40:58Z</time>
      </trkpt>
      <trkpt lat="47.5737344" lon="10.6596378">
        <ele>871.0900000</ele>
        <time>2014-04-21T07:40:59Z</time>
      </trkpt>
      <trkpt lat="47.5738185" lon="10.6596776">
        <ele>870.1300000</ele>
        <time>2014-04-21T07:41:00Z</time>
      </trkpt>
      <trkpt lat="47.5739165" lon="10.6596886">
        <ele>870.1300000</ele>
        <time>2014-04-21T07:41:01Z</time>
      </trkpt>
      <trkpt lat="47.5740318" lon="10.6596894">
        <ele>870.6100000</ele>
        <time>2014-04-21T07:41:02Z</time>
      </trkpt>
      <trkpt lat="47.5741661" lon="10.6597020">
        <ele>871.5700000</ele>
        <time>2014-04-21T07:41:03Z</time>
      </trkpt>
      <trkpt lat="47.5743161" lon="10.6597297">
        <ele>795.6300000</ele>
        <time>2014-04-21T07:41:04Z</time>
      </trkpt>
      <trkpt lat="47.5744749" lon="10.6597704">
        <ele>795.6300000</ele>
        <time>2014-04-21T07:41:05Z</time>
      </trkpt>
      <trkpt lat="47.5748264" lon="10.6598785">
        <ele>798.5100000</ele>
        <time>2014-04-21T07:41:07Z</time>
      </trkpt>
      <trkpt lat="47.5750129" lon="10.6599509">
        <ele>798.5100000</ele>
        <time>2014-04-21T07:41:08Z</time>
      </trkpt>
      <trkpt lat="47.5756655" lon="10.6603214">
        <ele>793.7100000</ele>
        <time>2014-04-21T07:41:12Z</time>
      </trkpt>
      <trkpt lat="47.5757735" lon="10.6604297">
        <ele>791.3000000</ele>
        <time>2014-04-21T07:41:13Z</time>
      </trkpt>
      <trkpt lat="47.5758462" lon="10.6605617">
        <ele>790.3400000</ele>
        <time>2014-04-21T07:41:14Z</time>
      </trkpt>
      <trkpt lat="47.5758939" lon="10.6607210">
        <ele>790.8200000</ele>
        <time>2014-04-21T07:41:15Z</time>
      </trkpt>
      <trkpt lat="47.5759106" lon="10.6609046">
        <ele>790.8200000</ele>
        <time>2014-04-21T07:41:16Z</time>
      </trkpt>
      <trkpt lat="47.5756505" lon="10.6615092">
        <ele>790.8200000</ele>
        <time>2014-04-21T07:41:20Z</time>
      </trkpt>
      <trkpt lat="47.5755151" lon="10.6615718">
        <ele>790.8200000</ele>
        <time>2014-04-21T07:41:21Z</time>
      </trkpt>
      <trkpt lat="47.5753737" lon="10.6615795">
        <ele>790.8200000</ele>
        <time>2014-04-21T07:41:22Z</time>
      </trkpt>
      <trkpt lat="47.5752259" lon="10.6615395">
        <ele>790.8200000</ele>
        <time>2014-04-21T07:41:23Z</time>
      </trkpt>
      <trkpt lat="47.5747161" lon="10.6613700">
        <ele>794.1900000</ele>
        <time>2014-04-21T07:41:26Z</time>
      </trkpt>
      <trkpt lat="47.5741387" lon="10.6611944">
        <ele>798.5100000</ele>
        <time>2014-04-21T07:41:29Z</time>
      </trkpt>
      <trkpt lat="47.5739527" lon="10.6611250">
        <ele>798.0300000</ele>
        <time>2014-04-21T07:41:30Z</time>
      </trkpt>
      <trkpt lat="47.5734052" lon="10.6609200">
        <ele>795.6300000</ele>
        <time>2014-04-21T07:41:33Z</time>
      </trkpt>
      <trkpt lat="47.5711153" lon="10.6601021">
        <ele>797.0700000</ele>
        <time>2014-04-21T07:41:45Z</time>
      </trkpt>
      <trkpt lat="47.5671108" lon="10.6588747">
        <ele>798.5100000</ele>
        <time>2014-04-21T07:42:06Z</time>
      </trkpt>
      <trkpt lat="47.5667444" lon="10.6587705">
        <ele>799.9500000</ele>
        <time>2014-04-21T07:42:08Z</time>
      </trkpt>
      <trkpt lat="47.5659929" lon="10.6585561">
        <ele>802.3600000</ele>
        <time>2014-04-21T07:42:12Z</time>
      </trkpt>
      <trkpt lat="47.5656172" lon="10.6584490">
        <ele>804.7600000</ele>
        <time>2014-04-21T07:42:14Z</time>
      </trkpt>
      <trkpt lat="47.5652416" lon="10.6583419">
        <ele>802.8400000</ele>
        <time>2014-04-21T07:42:16Z</time>
      </trkpt>
      <trkpt lat="47.5648659" lon="10.6582348">
        <ele>800.9200000</ele>
        <time>2014-04-21T07:42:18Z</time>
      </trkpt>
      <trkpt lat="47.5643024" lon="10.6580741">
        <ele>804.2800000</ele>
        <time>2014-04-21T07:42:21Z</time>
      </trkpt>
      <trkpt lat="47.5639267" lon="10.6579670">
        <ele>805.7200000</ele>
        <time>2014-04-21T07:42:23Z</time>
      </trkpt>
      <trkpt lat="47.5635510" lon="10.6578599">
        <ele>801.8800000</ele>
        <time>2014-04-21T07:42:25Z</time>
      </trkpt>
      <trkpt lat="47.5633630" lon="10.6578063">
        <ele>801.8800000</ele>
        <time>2014-04-21T07:42:26Z</time>
      </trkpt>
      <trkpt lat="47.5629873" lon="10.6576993">
        <ele>805.7200000</ele>
        <time>2014-04-21T07:42:28Z</time>
      </trkpt>
      <trkpt lat="47.5624238" lon="10.6575386">
        <ele>808.1300000</ele>
        <time>2014-04-21T07:42:31Z</time>
      </trkpt>
      <trkpt lat="47.5622360" lon="10.6574850">
        <ele>804.7600000</ele>
        <time>2014-04-21T07:42:32Z</time>
      </trkpt>
      <trkpt lat="47.5618774" lon="10.6573828">
        <ele>803.8000000</ele>
        <time>2014-04-21T07:42:34Z</time>
      </trkpt>
      <trkpt lat="47.5615002" lon="10.6572753">
        <ele>807.1600000</ele>
        <time>2014-04-21T07:42:36Z</time>
      </trkpt>
      <trkpt lat="47.5554791" lon="10.6561671">
        <ele>819.6600000</ele>
        <time>2014-04-21T07:43:04Z</time>
      </trkpt>
      <trkpt lat="47.5545975" lon="10.6562235">
        <ele>823.5100000</ele>
        <time>2014-04-21T07:43:08Z</time>
      </trkpt>
      <trkpt lat="47.5541266" lon="10.6563018">
        <ele>824.4700000</ele>
        <time>2014-04-21T07:43:10Z</time>
      </trkpt>
      <trkpt lat="47.5532002" lon="10.6565414">
        <ele>821.5800000</ele>
        <time>2014-04-21T07:43:14Z</time>
      </trkpt>
      <trkpt lat="47.5529754" lon="10.6566193">
        <ele>821.5800000</ele>
        <time>2014-04-21T07:43:15Z</time>
      </trkpt>
      <trkpt lat="47.5521080" lon="10.6569835">
        <ele>822.0600000</ele>
        <time>2014-04-21T07:43:19Z</time>
      </trkpt>
      <trkpt lat="47.5502663" lon="10.6580942">
        <ele>817.2600000</ele>
        <time>2014-04-21T07:43:28Z</time>
      </trkpt>
      <trkpt lat="47.5500878" lon="10.6582229">
        <ele>817.2600000</ele>
        <time>2014-04-21T07:43:29Z</time>
      </trkpt>
      <trkpt lat="47.5485933" lon="10.6594639">
        <ele>818.2200000</ele>
        <time>2014-04-21T07:43:38Z</time>
      </trkpt>
      <trkpt lat="47.5482454" lon="10.6597846">
        <ele>820.6200000</ele>
        <time>2014-04-21T07:43:40Z</time>
      </trkpt>
      <trkpt lat="47.5473779" lon="10.6606529">
        <ele>822.0600000</ele>
        <time>2014-04-21T07:43:45Z</time>
      </trkpt>
      <trkpt lat="47.5470316" lon="10.6609998">
        <ele>820.6200000</ele>
        <time>2014-04-21T07:43:47Z</time>
      </trkpt>
      <trkpt lat="47.5444911" lon="10.6630712">
        <ele>823.0300000</ele>
        <time>2014-04-21T07:44:02Z</time>
      </trkpt>
      <trkpt lat="47.5426283" lon="10.6649800">
        <ele>822.0600000</ele>
        <time>2014-04-21T07:44:14Z</time>
      </trkpt>
      <trkpt lat="47.5414947" lon="10.6656812">
        <ele>820.6200000</ele>
        <time>2014-04-21T07:44:21Z</time>
      </trkpt>
      <trkpt lat="47.5402164" lon="10.6668446">
        <ele>822.5500000</ele>
        <time>2014-04-21T07:44:30Z</time>
      </trkpt>
      <trkpt lat="47.5390106" lon="10.6694215">
        <ele>822.5500000</ele>
        <time>2014-04-21T07:44:42Z</time>
      </trkpt>
      <trkpt lat="47.5382472" lon="10.6711063">
        <ele>825.4300000</ele>
        <time>2014-04-21T07:44:49Z</time>
      </trkpt>
      <trkpt lat="47.5370593" lon="10.6730012">
        <ele>828.3100000</ele>
        <time>2014-04-21T07:44:58Z</time>
      </trkpt>
      <trkpt lat="47.5369104" lon="10.6732443">
        <ele>828.3100000</ele>
        <time>2014-04-21T07:44:59Z</time>
      </trkpt>
      <trkpt lat="47.5366098" lon="10.6737706">
        <ele>832.6400000</ele>
        <time>2014-04-21T07:45:01Z</time>
      </trkpt>
      <trkpt lat="47.5361057" lon="10.6745835">
        <ele>836.0000000</ele>
        <time>2014-04-21T07:45:04Z</time>
      </trkpt>
      <trkpt lat="47.5359251" lon="10.6748564">
        <ele>836.0000000</ele>
        <time>2014-04-21T07:45:05Z</time>
      </trkpt>
      <trkpt lat="47.5350492" lon="10.6763084">
        <ele>838.4100000</ele>
        <time>2014-04-21T07:45:10Z</time>
      </trkpt>
      <trkpt lat="47.5343724" lon="10.6775103">
        <ele>835.0400000</ele>
        <time>2014-04-21T07:45:14Z</time>
      </trkpt>
      <trkpt lat="47.5342091" lon="10.6778098">
        <ele>835.0400000</ele>
        <time>2014-04-21T07:45:15Z</time>
      </trkpt>
      <trkpt lat="47.5333949" lon="10.6793365">
        <ele>838.4100000</ele>
        <time>2014-04-21T07:45:20Z</time>
      </trkpt>
      <trkpt lat="47.5313760" lon="10.6835080">
        <ele>842.2500000</ele>
        <time>2014-04-21T07:45:33Z</time>
      </trkpt>
      <trkpt lat="47.5312272" lon="10.6838422">
        <ele>842.2500000</ele>
        <time>2014-04-21T07:45:34Z</time>
      </trkpt>
      <trkpt lat="47.5300568" lon="10.6865600">
        <ele>843.6900000</ele>
        <time>2014-04-21T07:45:42Z</time>
      </trkpt>
      <trkpt lat="47.5289656" lon="10.6893385">
        <ele>843.2100000</ele>
        <time>2014-04-21T07:45:50Z</time>
      </trkpt>
      <trkpt lat="47.5277501" lon="10.6928076">
        <ele>847.0600000</ele>
        <time>2014-04-21T07:46:00Z</time>
      </trkpt>
      <trkpt lat="47.5275176" lon="10.6935129">
        <ele>848.0200000</ele>
        <time>2014-04-21T07:46:02Z</time>
      </trkpt>
      <trkpt lat="47.5271825" lon="10.6945734">
        <ele>849.4600000</ele>
        <time>2014-04-21T07:46:05Z</time>
      </trkpt>
      <trkpt lat="47.5269670" lon="10.6952800">
        <ele>851.8700000</ele>
        <time>2014-04-21T07:46:07Z</time>
      </trkpt>
      <trkpt lat="47.5264501" lon="10.6970316">
        <ele>855.2300000</ele>
        <time>2014-04-21T07:46:12Z</time>
      </trkpt>
      <trkpt lat="47.5263504" lon="10.6973789">
        <ele>855.2300000</ele>
        <time>2014-04-21T07:46:13Z</time>
      </trkpt>
      <trkpt lat="47.5259670" lon="10.6987624">
        <ele>853.7900000</ele>
        <time>2014-04-21T07:46:17Z</time>
      </trkpt>
      <trkpt lat="47.5251181" lon="10.7017941">
        <ele>855.2300000</ele>
        <time>2014-04-21T07:46:26Z</time>
      </trkpt>
      <trkpt lat="47.5237221" lon="10.7069618">
        <ele>858.1100000</ele>
        <time>2014-04-21T07:46:42Z</time>
      </trkpt>
      <trkpt lat="47.5227210" lon="10.7107013">
        <ele>861.9600000</ele>
        <time>2014-04-21T07:46:53Z</time>
      </trkpt>
      <trkpt lat="47.5213857" lon="10.7156273">
        <ele>865.3200000</ele>
        <time>2014-04-21T07:47:07Z</time>
      </trkpt>
      <trkpt lat="47.5212916" lon="10.7159807">
        <ele>865.3200000</ele>
        <time>2014-04-21T07:47:08Z</time>
      </trkpt>
      <trkpt lat="47.5211025" lon="10.7166860">
        <ele>863.8800000</ele>
        <time>2014-04-21T07:47:10Z</time>
      </trkpt>
      <trkpt lat="47.5202239" lon="10.7198750">
        <ele>865.8000000</ele>
        <time>2014-04-21T07:47:19Z</time>
      </trkpt>
      <trkpt lat="47.5193922" lon="10.7222871">
        <ele>867.2500000</ele>
        <time>2014-04-21T07:47:26Z</time>
      </trkpt>
      <trkpt lat="47.5188467" lon="10.7235741">
        <ele>868.6900000</ele>
        <time>2014-04-21T07:47:30Z</time>
      </trkpt>
      <trkpt lat="47.5184044" lon="10.7244828">
        <ele>871.5700000</ele>
        <time>2014-04-21T07:47:33Z</time>
      </trkpt>
      <trkpt lat="47.5180990" lon="10.7250676">
        <ele>872.5300000</ele>
        <time>2014-04-21T07:47:35Z</time>
      </trkpt>
      <trkpt lat="47.5177791" lon="10.7256244">
        <ele>873.9800000</ele>
        <time>2014-04-21T07:47:37Z</time>
      </trkpt>
      <trkpt lat="47.5165853" lon="10.7273797">
        <ele>877.8200000</ele>
        <time>2014-04-21T07:47:44Z</time>
      </trkpt>
      <trkpt lat="47.5162191" lon="10.7278494">
        <ele>879.2600000</ele>
        <time>2014-04-21T07:47:46Z</time>
      </trkpt>
      <trkpt lat="47.5154606" lon="10.7287492">
        <ele>883.5900000</ele>
        <time>2014-04-21T07:47:50Z</time>
      </trkpt>
      <trkpt lat="47.5150699" lon="10.7291681">
        <ele>885.5100000</ele>
        <time>2014-04-21T07:47:52Z</time>
      </trkpt>
      <trkpt lat="47.5144710" lon="10.7297667">
        <ele>888.4000000</ele>
        <time>2014-04-21T07:47:55Z</time>
      </trkpt>
      <trkpt lat="47.5142687" lon="10.7299588">
        <ele>888.8800000</ele>
        <time>2014-04-21T07:47:56Z</time>
      </trkpt>
      <trkpt lat="47.5134458" lon="10.7306939">
        <ele>892.2400000</ele>
        <time>2014-04-21T07:48:00Z</time>
      </trkpt>
      <trkpt lat="47.5132364" lon="10.7308655">
        <ele>892.2400000</ele>
        <time>2014-04-21T07:48:01Z</time>
      </trkpt>
      <trkpt lat="47.5121693" lon="10.7316515">
        <ele>895.1200000</ele>
        <time>2014-04-21T07:48:06Z</time>
      </trkpt>
      <trkpt lat="47.5115286" lon="10.7320845">
        <ele>898.4900000</ele>
        <time>2014-04-21T07:48:09Z</time>
      </trkpt>
      <trkpt lat="47.5110927" lon="10.7323487">
        <ele>899.4500000</ele>
        <time>2014-04-21T07:48:11Z</time>
      </trkpt>
      <trkpt lat="47.5102176" lon="10.7328294">
        <ele>902.8200000</ele>
        <time>2014-04-21T07:48:15Z</time>
      </trkpt>
      <trkpt lat="47.5095602" lon="10.7331550">
        <ele>906.1800000</ele>
        <time>2014-04-21T07:48:18Z</time>
      </trkpt>
      <trkpt lat="47.5093385" lon="10.7332557">
        <ele>906.1800000</ele>
        <time>2014-04-21T07:48:19Z</time>
      </trkpt>
      <trkpt lat="47.5088868" lon="10.7334521">
        <ele>908.5800000</ele>
        <time>2014-04-21T07:48:21Z</time>
      </trkpt>
      <trkpt lat="47.5082039" lon="10.7337127">
        <ele>911.9500000</ele>
        <time>2014-04-21T07:48:24Z</time>
      </trkpt>
      <trkpt lat="47.5079747" lon="10.7337979">
        <ele>911.9500000</ele>
        <time>2014-04-21T07:48:25Z</time>
      </trkpt>
      <trkpt lat="47.5061413" lon="10.7344489">
        <ele>915.3100000</ele>
        <time>2014-04-21T07:48:33Z</time>
      </trkpt>
      <trkpt lat="47.5047359" lon="10.7348931">
        <ele>918.6800000</ele>
        <time>2014-04-21T07:48:39Z</time>
      </trkpt>
      <trkpt lat="47.5030485" lon="10.7354166">
        <ele>922.0400000</ele>
        <time>2014-04-21T07:48:46Z</time>
      </trkpt>
      <trkpt lat="47.5023087" lon="10.7356651">
        <ele>924.9300000</ele>
        <time>2014-04-21T07:48:49Z</time>
      </trkpt>
      <trkpt lat="47.5020623" lon="10.7357632">
        <ele>924.9300000</ele>
        <time>2014-04-21T07:48:50Z</time>
      </trkpt>
      <trkpt lat="47.5001775" lon="10.7369155">
        <ele>930.6900000</ele>
        <time>2014-04-21T07:48:58Z</time>
      </trkpt>
      <trkpt lat="47.4999625" lon="10.7371141">
        <ele>930.2100000</ele>
        <time>2014-04-21T07:48:59Z</time>
      </trkpt>
      <trkpt lat="47.4993717" lon="10.7377802">
        <ele>928.2900000</ele>
        <time>2014-04-21T07:49:02Z</time>
      </trkpt>
      <trkpt lat="47.4988235" lon="10.7385674">
        <ele>926.8500000</ele>
        <time>2014-04-21T07:49:05Z</time>
      </trkpt>
      <trkpt lat="47.4979311" lon="10.7404163">
        <ele>930.2100000</ele>
        <time>2014-04-21T07:49:11Z</time>
      </trkpt>
      <trkpt lat="47.4978011" lon="10.7407451">
        <ele>929.7300000</ele>
        <time>2014-04-21T07:49:12Z</time>
      </trkpt>
      <trkpt lat="47.4972872" lon="10.7420650">
        <ele>926.8500000</ele>
        <time>2014-04-21T07:49:16Z</time>
      </trkpt>
      <trkpt lat="47.4958355" lon="10.7447509">
        <ele>927.3300000</ele>
        <time>2014-04-21T07:49:25Z</time>
      </trkpt>
      <trkpt lat="47.4954524" lon="10.7452626">
        <ele>925.4100000</ele>
        <time>2014-04-21T07:49:27Z</time>
      </trkpt>
      <trkpt lat="47.4937904" lon="10.7469149">
        <ele>922.0400000</ele>
        <time>2014-04-21T07:49:35Z</time>
      </trkpt>
      <trkpt lat="47.4933729" lon="10.7472094">
        <ele>921.0800000</ele>
        <time>2014-04-21T07:49:37Z</time>
      </trkpt>
      <trkpt lat="47.4919329" lon="10.7479740">
        <ele>917.2400000</ele>
        <time>2014-04-21T07:49:44Z</time>
      </trkpt>
      <trkpt lat="47.4913271" lon="10.7481146">
        <ele>914.3500000</ele>
        <time>2014-04-21T07:49:47Z</time>
      </trkpt>
      <trkpt lat="47.4911388" lon="10.7481028">
        <ele>912.9100000</ele>
        <time>2014-04-21T07:49:48Z</time>
      </trkpt>
      <trkpt lat="47.4909589" lon="10.7480582">
        <ele>911.9500000</ele>
        <time>2014-04-21T07:49:49Z</time>
      </trkpt>
      <trkpt lat="47.4907856" lon="10.7479861">
        <ele>910.5100000</ele>
        <time>2014-04-21T07:49:50Z</time>
      </trkpt>
      <trkpt lat="47.4906157" lon="10.7478886">
        <ele>909.5400000</ele>
        <time>2014-04-21T07:49:51Z</time>
      </trkpt>
      <trkpt lat="47.4904493" lon="10.7477704">
        <ele>909.0600000</ele>
        <time>2014-04-21T07:49:52Z</time>
      </trkpt>
      <trkpt lat="47.4902921" lon="10.7476262">
        <ele>908.1000000</ele>
        <time>2014-04-21T07:49:53Z</time>
      </trkpt>
      <trkpt lat="47.4901452" lon="10.7474498">
        <ele>907.1400000</ele>
        <time>2014-04-21T07:49:54Z</time>
      </trkpt>
      <trkpt lat="47.4900117" lon="10.7472515">
        <ele>907.1400000</ele>
        <time>2014-04-21T07:49:55Z</time>
      </trkpt>
      <trkpt lat="47.4898970" lon="10.7470354">
        <ele>906.6600000</ele>
        <time>2014-04-21T07:49:56Z</time>
      </trkpt>
      <trkpt lat="47.4897992" lon="10.7468019">
        <ele>905.2200000</ele>
        <time>2014-04-21T07:49:57Z</time>
      </trkpt>
      <trkpt lat="47.4897181" lon="10.7465521">
        <ele>904.2600000</ele>
        <time>2014-04-21T07:49:58Z</time>
      </trkpt>
      <trkpt lat="47.4896528" lon="10.7462915">
        <ele>903.7800000</ele>
        <time>2014-04-21T07:49:59Z</time>
      </trkpt>
      <trkpt lat="47.4895978" lon="10.7460178">
        <ele>903.7800000</ele>
        <time>2014-04-21T07:50:00Z</time>
      </trkpt>
      <trkpt lat="47.4893858" lon="10.7451638">
        <ele>902.3300000</ele>
        <time>2014-04-21T07:50:03Z</time>
      </trkpt>
      <trkpt lat="47.4892807" lon="10.7448896">
        <ele>902.3300000</ele>
        <time>2014-04-21T07:50:04Z</time>
      </trkpt>
      <trkpt lat="47.4891589" lon="10.7446323">
        <ele>902.3300000</ele>
        <time>2014-04-21T07:50:05Z</time>
      </trkpt>
      <trkpt lat="47.4890233" lon="10.7444027">
        <ele>900.4100000</ele>
        <time>2014-04-21T07:50:06Z</time>
      </trkpt>
      <trkpt lat="47.4888750" lon="10.7441943">
        <ele>898.4900000</ele>
        <time>2014-04-21T07:50:07Z</time>
      </trkpt>
      <trkpt lat="47.4887143" lon="10.7440034">
        <ele>898.0100000</ele>
        <time>2014-04-21T07:50:08Z</time>
      </trkpt>
      <trkpt lat="47.4885375" lon="10.7438295">
        <ele>897.5300000</ele>
        <time>2014-04-21T07:50:09Z</time>
      </trkpt>
      <trkpt lat="47.4883432" lon="10.7436761">
        <ele>897.5300000</ele>
        <time>2014-04-21T07:50:10Z</time>
      </trkpt>
      <trkpt lat="47.4881364" lon="10.7435432">
        <ele>897.0500000</ele>
        <time>2014-04-21T07:50:11Z</time>
      </trkpt>
      <trkpt lat="47.4879193" lon="10.7434308">
        <ele>896.0900000</ele>
        <time>2014-04-21T07:50:12Z</time>
      </trkpt>
      <trkpt lat="47.4876990" lon="10.7433358">
        <ele>894.6400000</ele>
        <time>2014-04-21T07:50:13Z</time>
      </trkpt>
      <trkpt lat="47.4870526" lon="10.7430456">
        <ele>890.8000000</ele>
        <time>2014-04-21T07:50:16Z</time>
      </trkpt>
      <trkpt lat="47.4864645" lon="10.7425860">
        <ele>888.4000000</ele>
        <time>2014-04-21T07:50:19Z</time>
      </trkpt>
      <trkpt lat="47.4862958" lon="10.7423823">
        <ele>886.4700000</ele>
        <time>2014-04-21T07:50:20Z</time>
      </trkpt>
      <trkpt lat="47.4861408" lon="10.7421576">
        <ele>885.5100000</ele>
        <time>2014-04-21T07:50:21Z</time>
      </trkpt>
      <trkpt lat="47.4860023" lon="10.7419174">
        <ele>884.0700000</ele>
        <time>2014-04-21T07:50:22Z</time>
      </trkpt>
      <trkpt lat="47.4858802" lon="10.7416648">
        <ele>882.6300000</ele>
        <time>2014-04-21T07:50:23Z</time>
      </trkpt>
      <trkpt lat="47.4857726" lon="10.7414030">
        <ele>881.6700000</ele>
        <time>2014-04-21T07:50:24Z</time>
      </trkpt>
      <trkpt lat="47.4856727" lon="10.7411378">
        <ele>881.6700000</ele>
        <time>2014-04-21T07:50:25Z</time>
      </trkpt>
      <trkpt lat="47.4854699" lon="10.7406269">
        <ele>878.3000000</ele>
        <time>2014-04-21T07:50:27Z</time>
      </trkpt>
      <trkpt lat="47.4853637" lon="10.7403884">
        <ele>878.7800000</ele>
        <time>2014-04-21T07:50:28Z</time>
      </trkpt>
      <trkpt lat="47.4847913" lon="10.7393356">
        <ele>874.9400000</ele>
        <time>2014-04-21T07:50:33Z</time>
      </trkpt>
      <trkpt lat="47.4844210" lon="10.7388261">
        <ele>873.5000000</ele>
        <time>2014-04-21T07:50:36Z</time>
      </trkpt>
      <trkpt lat="47.4840395" lon="10.7384017">
        <ele>870.1300000</ele>
        <time>2014-04-21T07:50:39Z</time>
      </trkpt>
      <trkpt lat="47.4839132" lon="10.7382678">
        <ele>870.1300000</ele>
        <time>2014-04-21T07:50:40Z</time>
      </trkpt>
      <trkpt lat="47.4828532" lon="10.7371269">
        <ele>872.5300000</ele>
        <time>2014-04-21T07:50:48Z</time>
      </trkpt>
      <trkpt lat="47.4821897" lon="10.7364050">
        <ele>874.9400000</ele>
        <time>2014-04-21T07:50:53Z</time>
      </trkpt>
      <trkpt lat="47.4813121" lon="10.7355162">
        <ele>873.9800000</ele>
        <time>2014-04-21T07:51:00Z</time>
      </trkpt>
      <trkpt lat="47.4799102" lon="10.7345149">
        <ele>875.4200000</ele>
        <time>2014-04-21T07:51:11Z</time>
      </trkpt>
      <trkpt lat="47.4797707" lon="10.7343628">
        <ele>875.9000000</ele>
        <time>2014-04-21T07:51:12Z</time>
      </trkpt>
      <trkpt lat="47.4796432" lon="10.7341988">
        <ele>874.9400000</ele>
        <time>2014-04-21T07:51:13Z</time>
      </trkpt>
      <trkpt lat="47.4795355" lon="10.7340358">
        <ele>873.0100000</ele>
        <time>2014-04-21T07:51:14Z</time>
      </trkpt>
      <trkpt lat="47.4794456" lon="10.7338651">
        <ele>870.6100000</ele>
        <time>2014-04-21T07:51:15Z</time>
      </trkpt>
      <trkpt lat="47.4793709" lon="10.7336843">
        <ele>869.6500000</ele>
        <time>2014-04-21T07:51:16Z</time>
      </trkpt>
      <trkpt lat="47.4793108" lon="10.7334966">
        <ele>868.2100000</ele>
        <time>2014-04-21T07:51:17Z</time>
      </trkpt>
      <trkpt lat="47.4792597" lon="10.7333029">
        <ele>867.7300000</ele>
        <time>2014-04-21T07:51:18Z</time>
      </trkpt>
      <trkpt lat="47.4792137" lon="10.7331042">
        <ele>867.7300000</ele>
        <time>2014-04-21T07:51:19Z</time>
      </trkpt>
      <trkpt lat="47.4791258" lon="10.7325042">
        <ele>864.3600000</ele>
        <time>2014-04-21T07:51:22Z</time>
      </trkpt>
      <trkpt lat="47.4791199" lon="10.7323200">
        <ele>862.9200000</ele>
        <time>2014-04-21T07:51:23Z</time>
      </trkpt>
      <trkpt lat="47.4791331" lon="10.7321441">
        <ele>861.9600000</ele>
        <time>2014-04-21T07:51:24Z</time>
      </trkpt>
      <trkpt lat="47.4791685" lon="10.7319788">
        <ele>861.4800000</ele>
        <time>2014-04-21T07:51:25Z</time>
      </trkpt>
      <trkpt lat="47.4792233" lon="10.7318271">
        <ele>860.0400000</ele>
        <time>2014-04-21T07:51:26Z</time>
      </trkpt>
      <trkpt lat="47.4792893" lon="10.7316897">
        <ele>858.5900000</ele>
        <time>2014-04-21T07:51:27Z</time>
      </trkpt>
      <trkpt lat="47.4793616" lon="10.7315624">
        <ele>857.6300000</ele>
        <time>2014-04-21T07:51:28Z</time>
      </trkpt>
      <trkpt lat="47.4794313" lon="10.7314464">
        <ele>855.7100000</ele>
        <time>2014-04-21T07:51:29Z</time>
      </trkpt>
      <trkpt lat="47.4795428" lon="10.7312480">
        <ele>854.2700000</ele>
        <time>2014-04-21T07:51:31Z</time>
      </trkpt>
      <trkpt lat="47.4795746" lon="10.7311554">
        <ele>852.8300000</ele>
        <time>2014-04-21T07:51:32Z</time>
      </trkpt>
      <trkpt lat="47.4795788" lon="10.7310621">
        <ele>852.3500000</ele>
        <time>2014-04-21T07:51:33Z</time>
      </trkpt>
      <trkpt lat="47.4795590" lon="10.7309747">
        <ele>851.8700000</ele>
        <time>2014-04-21T07:51:34Z</time>
      </trkpt>
      <trkpt lat="47.4795323" lon="10.7309087">
        <ele>851.8700000</ele>
        <time>2014-04-21T07:51:35Z</time>
      </trkpt>
      <trkpt lat="47.4795115" lon="10.7308566">
        <ele>851.8700000</ele>
        <time>2014-04-21T07:51:36Z</time>
      </trkpt>
      <trkpt lat="47.4795007" lon="10.7307905">
        <ele>851.3800000</ele>
        <time>2014-04-21T07:51:37Z</time>
      </trkpt>
      <trkpt lat="47.4795118" lon="10.7307082">
        <ele>851.3800000</ele>
        <time>2014-04-21T07:51:38Z</time>
      </trkpt>
      <trkpt lat="47.4795432" lon="10.7306091">
        <ele>851.3800000</ele>
        <time>2014-04-21T07:51:39Z</time>
      </trkpt>
      <trkpt lat="47.4795798" lon="10.7304999">
        <ele>852.8300000</ele>
        <time>2014-04-21T07:51:40Z</time>
      </trkpt>
      <trkpt lat="47.4796172" lon="10.7303857">
        <ele>852.8300000</ele>
        <time>2014-04-21T07:51:41Z</time>
      </trkpt>
      <trkpt lat="47.4803000" lon="10.7282401">
        <ele>853.3100000</ele>
        <time>2014-04-21T07:51:55Z</time>
      </trkpt>
      <trkpt lat="47.4809588" lon="10.7268614">
        <ele>851.3800000</ele>
        <time>2014-04-21T07:52:04Z</time>
      </trkpt>
      <trkpt lat="47.4818160" lon="10.7253986">
        <ele>848.0200000</ele>
        <time>2014-04-21T07:52:16Z</time>
      </trkpt>
      <trkpt lat="47.4818866" lon="10.7253271">
        <ele>848.0200000</ele>
        <time>2014-04-21T07:52:17Z</time>
      </trkpt>
      <trkpt lat="47.4819649" lon="10.7252826">
        <ele>848.0200000</ele>
        <time>2014-04-21T07:52:18Z</time>
      </trkpt>
      <trkpt lat="47.4820343" lon="10.7252667">
        <ele>847.5400000</ele>
        <time>2014-04-21T07:52:19Z</time>
      </trkpt>
      <trkpt lat="47.4820805" lon="10.7252712">
        <ele>847.0600000</ele>
        <time>2014-04-21T07:52:20Z</time>
      </trkpt>
      <trkpt lat="47.4821130" lon="10.7252809">
        <ele>845.6200000</ele>
        <time>2014-04-21T07:52:21Z</time>
      </trkpt>
      <trkpt lat="47.4821417" lon="10.7252955">
        <ele>845.6200000</ele>
        <time>2014-04-21T07:52:22Z</time>
      </trkpt>
      <trkpt lat="47.4821735" lon="10.7253159">
        <ele>845.6200000</ele>
        <time>2014-04-21T07:52:23Z</time>
      </trkpt>
      <trkpt lat="47.4822822" lon="10.7253757">
        <ele>846.1000000</ele>
        <time>2014-04-21T07:52:25Z</time>
      </trkpt>
      <trkpt lat="47.4823645" lon="10.7254043">
        <ele>846.1000000</ele>
        <time>2014-04-21T07:52:26Z</time>
      </trkpt>
      <trkpt lat="47.4824630" lon="10.7254250">
        <ele>847.0600000</ele>
        <time>2014-04-21T07:52:27Z</time>
      </trkpt>
      <trkpt lat="47.4825815" lon="10.7254323">
        <ele>848.0200000</ele>
        <time>2014-04-21T07:52:28Z</time>
      </trkpt>
      <trkpt lat="47.4827204" lon="10.7254285">
        <ele>848.9800000</ele>
        <time>2014-04-21T07:52:29Z</time>
      </trkpt>
      <trkpt lat="47.4831012" lon="10.7254653">
        <ele>846.5800000</ele>
        <time>2014-04-21T07:52:32Z</time>
      </trkpt>
      <trkpt lat="47.4832071" lon="10.7255092">
        <ele>846.1000000</ele>
        <time>2014-04-21T07:52:33Z</time>
      </trkpt>
      <trkpt lat="47.4833074" lon="10.7255687">
        <ele>846.1000000</ele>
        <time>2014-04-21T07:52:34Z</time>
      </trkpt>
      <trkpt lat="47.4834012" lon="10.7256390">
        <ele>845.6200000</ele>
        <time>2014-04-21T07:52:35Z</time>
      </trkpt>
      <trkpt lat="47.4834895" lon="10.7257150">
        <ele>845.1400000</ele>
        <time>2014-04-21T07:52:36Z</time>
      </trkpt>
      <trkpt lat="47.4837665" lon="10.7259543">
        <ele>842.7300000</ele>
        <time>2014-04-21T07:52:41Z</time>
      </trkpt>
      <trkpt lat="47.4841680" lon="10.7264049">
        <ele>844.1800000</ele>
        <time>2014-04-21T07:52:53Z</time>
      </trkpt>
      <trkpt lat="47.4844612" lon="10.7268409">
        <ele>845.1400000</ele>
        <time>2014-04-21T07:52:58Z</time>
      </trkpt>
      <trkpt lat="47.4845478" lon="10.7270557">
        <ele>843.6900000</ele>
        <time>2014-04-21T07:53:01Z</time>
      </trkpt>
      <trkpt lat="47.4845540" lon="10.7271149">
        <ele>843.6900000</ele>
        <time>2014-04-21T07:53:02Z</time>
      </trkpt>
      <trkpt lat="47.4845468" lon="10.7271674">
        <ele>843.6900000</ele>
        <time>2014-04-21T07:53:03Z</time>
      </trkpt>
      <trkpt lat="47.4845347" lon="10.7272067">
        <ele>843.2100000</ele>
        <time>2014-04-21T07:53:04Z</time>
      </trkpt>
      <trkpt lat="47.4845231" lon="10.7272368">
        <ele>843.2100000</ele>
        <time>2014-04-21T07:53:05Z</time>
      </trkpt>
      <trkpt lat="47.4843944" lon="10.7275767">
        <ele>844.6600000</ele>
        <time>2014-04-21T07:53:10Z</time>
      </trkpt>
      <trkpt lat="47.4843563" lon="10.7276644">
        <ele>844.6600000</ele>
        <time>2014-04-21T07:53:11Z</time>
      </trkpt>
      <trkpt lat="47.4843046" lon="10.7277253">
        <ele>844.6600000</ele>
        <time>2014-04-21T07:53:12Z</time>
      </trkpt>
      <trkpt lat="47.4842445" lon="10.7277512">
        <ele>844.6600000</ele>
        <time>2014-04-21T07:53:13Z</time>
      </trkpt>
      <trkpt lat="47.4841974" lon="10.7277286">
        <ele>844.6600000</ele>
        <time>2014-04-21T07:53:14Z</time>
      </trkpt>
      <trkpt lat="47.4841705" lon="10.7276656">
        <ele>844.1800000</ele>
        <time>2014-04-21T07:53:15Z</time>
      </trkpt>
      <trkpt lat="47.4841675" lon="10.7275870">
        <ele>844.6600000</ele>
        <time>2014-04-21T07:53:16Z</time>
      </trkpt>
      <trkpt lat="47.4841916" lon="10.7274991">
        <ele>844.6600000</ele>
        <time>2014-04-21T07:53:17Z</time>
      </trkpt>
      <trkpt lat="47.4842349" lon="10.7274033">
        <ele>844.6600000</ele>
        <time>2014-04-21T07:53:18Z</time>
      </trkpt>
      <trkpt lat="47.4842827" lon="10.7273029">
        <ele>844.6600000</ele>
        <time>2014-04-21T07:53:19Z</time>
      </trkpt>
      <trkpt lat="47.4843247" lon="10.7271987">
        <ele>844.6600000</ele>
        <time>2014-04-21T07:53:20Z</time>
      </trkpt>
      <trkpt lat="47.4843551" lon="10.7270871">
        <ele>844.6600000</ele>
        <time>2014-04-21T07:53:21Z</time>
      </trkpt>
      <trkpt lat="47.4843601" lon="10.7269780">
        <ele>844.6600000</ele>
        <time>2014-04-21T07:53:22Z</time>
      </trkpt>
      <trkpt lat="47.4843412" lon="10.7268859">
        <ele>844.6600000</ele>
        <time>2014-04-21T07:53:23Z</time>
      </trkpt>
      <trkpt lat="47.4843083" lon="10.7268027">
        <ele>844.6600000</ele>
        <time>2014-04-21T07:53:24Z</time>
      </trkpt>
      <trkpt lat="47.4842705" lon="10.7267210">
        <ele>844.6600000</ele>
        <time>2014-04-21T07:53:25Z</time>
      </trkpt>
      <trkpt lat="47.4842240" lon="10.7266601">
        <ele>845.6200000</ele>
        <time>2014-04-21T07:53:26Z</time>
      </trkpt>
      <trkpt lat="47.4841722" lon="10.7266434">
        <ele>845.1400000</ele>
        <time>2014-04-21T07:53:27Z</time>
      </trkpt>
      <trkpt lat="47.4841246" lon="10.7266686">
        <ele>845.1400000</ele>
        <time>2014-04-21T07:53:28Z</time>
      </trkpt>
      <trkpt lat="47.4840913" lon="10.7267163">
        <ele>845.1400000</ele>
        <time>2014-04-21T07:53:29Z</time>
      </trkpt>
      <trkpt lat="47.4840685" lon="10.7267715">
        <ele>845.1400000</ele>
        <time>2014-04-21T07:53:30Z</time>
      </trkpt>
      <trkpt lat="47.4840493" lon="10.7268267">
        <ele>845.1400000</ele>
        <time>2014-04-21T07:53:31Z</time>
      </trkpt>
      <trkpt lat="47.4839545" lon="10.7270901">
        <ele>845.1400000</ele>
        <time>2014-04-21T07:53:36Z</time>
      </trkpt>
      <trkpt lat="47.4839571" lon="10.7271434">
        <ele>845.1400000</ele>
        <time>2014-04-21T07:53:37Z</time>
      </trkpt>
      <trkpt lat="47.4839796" lon="10.7271776">
        <ele>845.1400000</ele>
        <time>2014-04-21T07:53:38Z</time>
      </trkpt>
      <trkpt lat="47.4839992" lon="10.7271919">
        <ele>845.1400000</ele>
        <time>2014-04-21T07:53:47Z</time>
      </trkpt>
    </trkseg>
  </trk>

</gpx>
